createdAt,value
2022-08-26T00:00:23.910Z,22.30
2022-08-26T00:01:29.181Z,22.30
2022-08-26T00:02:24.900Z,22.28
2022-08-26T00:03:23.873Z,22.26
2022-08-26T00:04:23.976Z,22.26
2022-08-26T00:05:23.843Z,22.23
2022-08-26T00:06:23.823Z,22.23
2022-08-26T00:07:23.840Z,22.23
2022-08-26T00:08:23.803Z,22.23
2022-08-26T00:09:23.801Z,22.21
2022-08-26T00:10:23.797Z,22.22
2022-08-26T00:11:26.957Z,22.21
2022-08-26T00:12:31.514Z,22.22
2022-08-26T00:13:24.753Z,22.19
2022-08-26T00:14:28.330Z,22.21
2022-08-26T00:15:24.735Z,22.19
2022-08-26T00:16:23.777Z,22.19
2022-08-26T00:17:23.733Z,22.18
2022-08-26T00:18:23.711Z,22.18
2022-08-26T00:19:24.355Z,22.18
2022-08-26T00:20:23.678Z,22.16
2022-08-26T00:21:23.665Z,22.12
2022-08-26T00:22:23.673Z,22.14
2022-08-26T00:23:24.076Z,22.08
2022-08-26T00:24:23.664Z,22.07
2022-08-26T00:25:23.623Z,22.07
2022-08-26T00:26:23.635Z,22.06
2022-08-26T00:27:23.607Z,22.03
2022-08-26T00:28:23.585Z,22.01
2022-08-26T00:29:23.577Z,22.00
2022-08-26T00:30:24.167Z,21.99
2022-08-26T00:31:23.587Z,21.97
2022-08-26T00:32:23.596Z,21.94
2022-08-26T00:33:23.534Z,21.96
2022-08-26T00:34:23.565Z,21.92
2022-08-26T00:35:23.526Z,21.91
2022-08-26T00:36:23.512Z,21.89
2022-08-26T00:37:23.485Z,21.84
2022-08-26T00:38:23.494Z,21.84
2022-08-26T00:39:23.477Z,21.85
2022-08-26T00:40:23.494Z,21.84
2022-08-26T00:41:23.437Z,21.84
2022-08-26T00:42:23.438Z,21.88
2022-08-26T00:43:23.417Z,21.84
2022-08-26T00:44:23.407Z,21.84
2022-08-26T00:45:23.426Z,21.83
2022-08-26T00:46:23.396Z,21.83
2022-08-26T00:47:23.388Z,21.84
2022-08-26T00:48:23.364Z,21.83
2022-08-26T00:49:23.356Z,21.81
2022-08-26T00:50:23.596Z,21.80
2022-08-26T00:51:23.597Z,21.75
2022-08-26T00:52:23.336Z,21.75
2022-08-26T00:53:24.055Z,21.74
2022-08-26T00:54:23.296Z,21.74
2022-08-26T00:55:23.287Z,21.70
2022-08-26T00:56:23.267Z,21.68
2022-08-26T00:57:23.267Z,21.66
2022-08-26T00:58:23.247Z,21.62
2022-08-26T00:59:23.267Z,21.62
2022-08-26T01:00:23.227Z,21.60
2022-08-26T01:01:23.331Z,21.59
2022-08-26T01:02:23.265Z,21.59
2022-08-26T01:03:23.199Z,21.58
2022-08-26T01:04:23.192Z,21.58
2022-08-26T01:05:23.168Z,21.53
2022-08-26T01:06:23.198Z,21.53
2022-08-26T01:07:23.167Z,21.51
2022-08-26T01:08:23.139Z,21.50
2022-08-26T01:09:23.139Z,21.47
2022-08-26T01:10:23.133Z,21.47
2022-08-26T01:11:23.128Z,21.43
2022-08-26T01:12:23.147Z,21.43
2022-08-26T01:13:23.347Z,21.41
2022-08-26T01:14:23.128Z,21.38
2022-08-26T01:15:23.573Z,21.38
2022-08-26T01:16:23.160Z,21.38
2022-08-26T01:17:23.180Z,21.37
2022-08-26T01:18:23.181Z,21.35
2022-08-26T01:19:23.124Z,21.37
2022-08-26T01:20:23.052Z,21.32
2022-08-26T01:21:23.040Z,21.35
2022-08-26T01:22:23.088Z,21.32
2022-08-26T01:23:24.032Z,21.30
2022-08-26T01:24:23.012Z,21.33
2022-08-26T01:25:23.021Z,21.35
2022-08-26T01:26:23.021Z,21.37
2022-08-26T01:27:23.000Z,21.37
2022-08-26T01:28:22.980Z,21.38
2022-08-26T01:29:22.955Z,21.38
2022-08-26T01:30:22.951Z,21.37
2022-08-26T01:31:22.968Z,21.37
2022-08-26T01:32:23.372Z,21.40
2022-08-26T01:33:22.900Z,21.40
2022-08-26T01:34:22.900Z,21.38
2022-08-26T01:35:22.895Z,21.38
2022-08-26T01:36:22.882Z,21.38
2022-08-26T01:37:22.854Z,21.40
2022-08-26T01:38:23.809Z,21.41
2022-08-26T01:39:22.844Z,21.43
2022-08-26T01:40:22.866Z,21.38
2022-08-26T01:41:27.549Z,21.38
2022-08-26T01:42:23.877Z,21.35
2022-08-26T01:43:22.751Z,21.28
2022-08-26T01:44:22.751Z,21.28
2022-08-26T01:45:22.751Z,21.28
2022-08-26T01:46:22.730Z,21.25
2022-08-26T01:47:22.740Z,21.23
2022-08-26T01:48:22.702Z,21.25
2022-08-26T01:49:22.707Z,21.25
2022-08-26T01:50:27.873Z,21.22
2022-08-26T01:51:23.676Z,21.23
2022-08-26T01:52:22.675Z,21.22
2022-08-26T01:53:22.662Z,21.19
2022-08-26T01:54:23.009Z,21.19
2022-08-26T01:55:32.942Z,21.17
2022-08-26T01:56:23.621Z,21.15
2022-08-26T01:57:22.612Z,21.14
2022-08-26T01:58:22.596Z,21.15
2022-08-26T01:59:22.580Z,21.11
2022-08-26T02:00:22.574Z,21.14
2022-08-26T02:01:22.648Z,21.11
2022-08-26T02:02:24.556Z,21.10
2022-08-26T02:03:22.553Z,21.07
2022-08-26T02:04:22.615Z,21.07
2022-08-26T02:05:22.502Z,21.03
2022-08-26T02:06:22.510Z,20.98
2022-08-26T02:07:22.492Z,20.96
2022-08-26T02:08:24.889Z,20.96
2022-08-26T02:09:22.466Z,20.93
2022-08-26T02:10:22.453Z,20.95
2022-08-26T02:11:22.442Z,20.93
2022-08-26T02:12:22.423Z,20.93
2022-08-26T02:13:22.525Z,20.89
2022-08-26T02:14:22.422Z,20.88
2022-08-26T02:15:22.395Z,20.89
2022-08-26T02:16:22.401Z,20.88
2022-08-26T02:17:22.373Z,20.83
2022-08-26T02:18:22.354Z,20.83
2022-08-26T02:19:22.343Z,20.80
2022-08-26T02:20:22.333Z,20.78
2022-08-26T02:21:22.333Z,20.75
2022-08-26T02:22:22.322Z,20.74
2022-08-26T02:23:24.367Z,20.74
2022-08-26T02:24:22.294Z,20.73
2022-08-26T02:25:22.282Z,20.71
2022-08-26T02:26:22.271Z,20.71
2022-08-26T02:27:22.302Z,20.71
2022-08-26T02:28:22.253Z,20.71
2022-08-26T02:29:22.245Z,20.67
2022-08-26T02:30:22.225Z,20.66
2022-08-26T02:31:22.242Z,20.67
2022-08-26T02:32:22.217Z,20.66
2022-08-26T02:33:22.193Z,20.63
2022-08-26T02:34:22.179Z,20.64
2022-08-26T02:35:22.174Z,20.60
2022-08-26T02:36:22.154Z,20.59
2022-08-26T02:37:23.035Z,20.60
2022-08-26T02:38:22.164Z,20.58
2022-08-26T02:39:22.535Z,20.56
2022-08-26T02:40:22.136Z,20.56
2022-08-26T02:41:22.104Z,20.55
2022-08-26T02:42:22.102Z,20.55
2022-08-26T02:43:23.853Z,20.50
2022-08-26T02:44:23.072Z,20.49
2022-08-26T02:45:23.065Z,20.48
2022-08-26T02:46:29.839Z,20.48
2022-08-26T02:47:24.842Z,20.44
2022-08-26T02:48:22.029Z,20.44
2022-08-26T02:49:22.015Z,20.40
2022-08-26T02:50:22.044Z,20.40
2022-08-26T02:51:22.035Z,20.39
2022-08-26T02:52:21.995Z,20.36
2022-08-26T02:53:25.246Z,20.37
2022-08-26T02:54:21.964Z,20.39
2022-08-26T02:55:21.955Z,20.39
2022-08-26T02:56:21.935Z,20.37
2022-08-26T02:57:22.198Z,20.37
2022-08-26T02:58:21.914Z,20.37
2022-08-26T02:59:24.417Z,20.39
2022-08-26T03:00:21.933Z,20.40
2022-08-26T03:01:21.933Z,20.40
2022-08-26T03:02:21.932Z,20.44
2022-08-26T03:03:22.505Z,20.40
2022-08-26T03:04:21.845Z,20.40
2022-08-26T03:05:21.846Z,20.39
2022-08-26T03:06:21.837Z,20.42
2022-08-26T03:07:21.836Z,20.42
2022-08-26T03:08:21.826Z,20.40
2022-08-26T03:09:21.887Z,20.40
2022-08-26T03:10:21.802Z,20.40
2022-08-26T03:11:21.813Z,20.39
2022-08-26T03:12:21.775Z,20.37
2022-08-26T03:13:21.755Z,20.36
2022-08-26T03:14:21.735Z,20.36
2022-08-26T03:15:21.736Z,20.36
2022-08-26T03:16:21.776Z,20.34
2022-08-26T03:17:21.725Z,20.30
2022-08-26T03:18:21.695Z,20.30
2022-08-26T03:19:21.689Z,20.30
2022-08-26T03:20:21.677Z,20.30
2022-08-26T03:21:21.666Z,20.27
2022-08-26T03:22:21.725Z,20.27
2022-08-26T03:23:21.668Z,20.24
2022-08-26T03:24:21.636Z,20.22
2022-08-26T03:25:21.660Z,20.22
2022-08-26T03:26:21.666Z,20.22
2022-08-26T03:27:21.656Z,20.21
2022-08-26T03:28:21.654Z,20.22
2022-08-26T03:29:21.658Z,20.19
2022-08-26T03:30:21.606Z,20.22
2022-08-26T03:31:21.666Z,20.22
2022-08-26T03:32:21.607Z,20.21
2022-08-26T03:33:21.613Z,20.21
2022-08-26T03:34:21.576Z,20.22
2022-08-26T03:35:22.483Z,20.19
2022-08-26T03:36:21.576Z,20.18
2022-08-26T03:37:21.670Z,20.17
2022-08-26T03:38:21.553Z,20.15
2022-08-26T03:39:21.539Z,20.15
2022-08-26T03:40:21.632Z,20.12
2022-08-26T03:41:21.581Z,20.12
2022-08-26T03:42:21.673Z,20.15
2022-08-26T03:43:21.563Z,20.14
2022-08-26T03:44:21.447Z,20.14
2022-08-26T03:45:21.448Z,20.14
2022-08-26T03:46:21.461Z,20.15
2022-08-26T03:47:21.436Z,20.14
2022-08-26T03:48:21.411Z,20.14
2022-08-26T03:49:21.415Z,20.10
2022-08-26T03:50:22.607Z,20.11
2022-08-26T03:51:21.377Z,20.12
2022-08-26T03:52:21.385Z,20.10
2022-08-26T03:53:21.378Z,20.10
2022-08-26T03:54:21.348Z,20.08
2022-08-26T03:55:21.341Z,20.07
2022-08-26T03:56:21.436Z,20.07
2022-08-26T03:57:21.318Z,20.11
2022-08-26T03:58:21.313Z,20.08
2022-08-26T03:59:21.284Z,20.08
2022-08-26T04:00:21.289Z,20.08
2022-08-26T04:01:21.308Z,20.04
2022-08-26T04:02:21.301Z,20.00
2022-08-26T04:03:21.254Z,20.00
2022-08-26T04:04:22.747Z,19.99
2022-08-26T04:05:21.235Z,19.97
2022-08-26T04:06:21.229Z,19.94
2022-08-26T04:07:21.199Z,19.94
2022-08-26T04:08:21.200Z,19.93
2022-08-26T04:09:21.175Z,19.92
2022-08-26T04:10:21.159Z,19.92
2022-08-26T04:11:22.159Z,19.90
2022-08-26T04:12:21.155Z,19.89
2022-08-26T04:13:21.127Z,19.85
2022-08-26T04:14:21.127Z,19.87
2022-08-26T04:15:21.149Z,19.84
2022-08-26T04:16:21.182Z,19.84
2022-08-26T04:17:21.091Z,19.84
2022-08-26T04:18:21.099Z,19.84
2022-08-26T04:19:21.058Z,19.82
2022-08-26T04:20:21.069Z,19.82
2022-08-26T04:21:21.049Z,19.81
2022-08-26T04:22:24.239Z,19.82
2022-08-26T04:23:21.029Z,19.79
2022-08-26T04:24:21.025Z,19.81
2022-08-26T04:25:20.990Z,19.82
2022-08-26T04:26:20.989Z,19.82
2022-08-26T04:27:20.978Z,19.81
2022-08-26T04:28:20.999Z,19.82
2022-08-26T04:29:20.949Z,19.82
2022-08-26T04:30:20.931Z,19.81
2022-08-26T04:31:20.973Z,19.79
2022-08-26T04:32:20.889Z,19.82
2022-08-26T04:33:32.537Z,19.82
2022-08-26T04:34:21.876Z,19.81
2022-08-26T04:35:25.687Z,19.81
2022-08-26T04:36:21.914Z,19.79
2022-08-26T04:37:20.839Z,19.77
2022-08-26T04:38:20.871Z,19.75
2022-08-26T04:39:20.820Z,19.75
2022-08-26T04:40:20.821Z,19.75
2022-08-26T04:41:20.810Z,19.74
2022-08-26T04:42:22.843Z,19.72
2022-08-26T04:43:21.762Z,19.72
2022-08-26T04:44:20.761Z,19.70
2022-08-26T04:45:22.764Z,19.66
2022-08-26T04:46:20.779Z,19.70
2022-08-26T04:47:20.710Z,19.64
2022-08-26T04:48:20.702Z,19.67
2022-08-26T04:49:20.690Z,19.67
2022-08-26T04:50:20.681Z,19.70
2022-08-26T04:51:20.689Z,19.70
2022-08-26T04:52:20.669Z,19.70
2022-08-26T04:53:20.652Z,19.71
2022-08-26T04:54:20.660Z,19.71
2022-08-26T04:55:20.680Z,19.71
2022-08-26T04:56:20.620Z,19.74
2022-08-26T04:57:20.601Z,19.75
2022-08-26T04:58:20.601Z,19.75
2022-08-26T04:59:20.592Z,19.77
2022-08-26T05:00:20.585Z,19.78
2022-08-26T05:01:20.602Z,19.79
2022-08-26T05:02:20.551Z,19.77
2022-08-26T05:03:20.535Z,19.79
2022-08-26T05:04:20.618Z,19.81
2022-08-26T05:05:20.521Z,19.78
2022-08-26T05:06:20.502Z,19.81
2022-08-26T05:07:20.490Z,19.82
2022-08-26T05:08:20.479Z,19.85
2022-08-26T05:09:20.464Z,19.85
2022-08-26T05:10:20.451Z,19.85
2022-08-26T05:11:20.511Z,19.89
2022-08-26T05:12:20.501Z,19.90
2022-08-26T05:13:20.596Z,19.94
2022-08-26T05:14:20.431Z,19.97
2022-08-26T05:15:20.404Z,20.02
2022-08-26T05:16:20.468Z,20.04
2022-08-26T05:17:20.382Z,20.11
2022-08-26T05:18:20.372Z,20.15
2022-08-26T05:19:21.154Z,20.18
2022-08-26T05:20:25.139Z,20.18
2022-08-26T05:21:21.340Z,20.24
2022-08-26T05:22:20.332Z,20.30
2022-08-26T05:23:20.302Z,20.33
2022-08-26T05:24:20.311Z,20.34
2022-08-26T05:25:20.290Z,20.37
2022-08-26T05:26:22.850Z,20.42
2022-08-26T05:27:20.282Z,20.49
2022-08-26T05:28:20.262Z,20.50
2022-08-26T05:29:20.242Z,20.53
2022-08-26T05:30:20.262Z,20.59
2022-08-26T05:31:20.283Z,20.63
2022-08-26T05:32:20.215Z,20.66
2022-08-26T05:33:20.200Z,20.67
2022-08-26T05:34:20.287Z,20.70
2022-08-26T05:35:20.183Z,20.70
2022-08-26T05:36:20.184Z,20.73
2022-08-26T05:37:20.157Z,20.73
2022-08-26T05:38:20.156Z,20.77
2022-08-26T05:39:20.175Z,20.80
2022-08-26T05:40:20.166Z,20.80
2022-08-26T05:41:20.112Z,20.82
2022-08-26T05:42:20.103Z,20.85
2022-08-26T05:43:20.223Z,20.88
2022-08-26T05:44:20.134Z,20.89
2022-08-26T05:45:20.071Z,20.90
2022-08-26T05:46:20.093Z,20.93
2022-08-26T05:47:20.063Z,20.95
2022-08-26T05:48:24.214Z,20.95
2022-08-26T05:49:20.026Z,20.98
2022-08-26T05:50:20.035Z,21.01
2022-08-26T05:51:23.973Z,21.01
2022-08-26T05:52:21.002Z,21.04
2022-08-26T05:53:19.995Z,21.07
2022-08-26T05:54:21.874Z,21.11
2022-08-26T05:55:19.965Z,21.14
2022-08-26T05:56:19.954Z,21.19
2022-08-26T05:57:19.946Z,21.22
2022-08-26T05:58:19.923Z,21.28
2022-08-26T05:59:23.960Z,21.33
2022-08-26T06:00:19.904Z,21.37
2022-08-26T06:01:19.944Z,21.38
2022-08-26T06:02:19.978Z,21.43
2022-08-26T06:03:19.881Z,21.47
2022-08-26T06:04:20.084Z,21.48
2022-08-26T06:05:19.854Z,21.51
2022-08-26T06:06:20.120Z,21.56
2022-08-26T06:07:20.834Z,21.60
2022-08-26T06:08:19.819Z,21.63
2022-08-26T06:09:19.803Z,21.65
2022-08-26T06:10:32.033Z,21.69
2022-08-26T06:11:20.816Z,21.72
2022-08-26T06:12:19.805Z,21.74
2022-08-26T06:13:19.764Z,21.75
2022-08-26T06:14:19.764Z,21.80
2022-08-26T06:15:20.043Z,21.84
2022-08-26T06:16:19.918Z,21.84
2022-08-26T06:17:19.781Z,21.85
2022-08-26T06:18:19.765Z,21.89
2022-08-26T06:19:19.758Z,21.91
2022-08-26T06:20:19.719Z,21.92
2022-08-26T06:21:19.706Z,21.96
2022-08-26T06:22:22.433Z,22.00
2022-08-26T06:23:19.695Z,22.01
2022-08-26T06:24:19.697Z,22.03
2022-08-26T06:25:19.683Z,22.03
2022-08-26T06:26:19.650Z,22.03
2022-08-26T06:27:19.674Z,22.01
2022-08-26T06:28:19.644Z,22.03
2022-08-26T06:29:24.112Z,22.04
2022-08-26T06:30:20.606Z,22.07
2022-08-26T06:31:19.730Z,22.10
2022-08-26T06:32:19.652Z,22.16
2022-08-26T06:33:19.587Z,22.19
2022-08-26T06:34:19.575Z,22.22
2022-08-26T06:35:19.565Z,22.28
2022-08-26T06:36:19.585Z,22.33
2022-08-26T06:37:19.536Z,22.36
2022-08-26T06:38:19.595Z,22.43
2022-08-26T06:39:19.528Z,22.46
2022-08-26T06:40:19.530Z,22.49
2022-08-26T06:41:19.527Z,22.47
2022-08-26T06:42:19.488Z,22.49
2022-08-26T06:43:19.467Z,22.52
2022-08-26T06:44:19.488Z,22.56
2022-08-26T06:45:19.460Z,22.58
2022-08-26T06:46:19.467Z,22.62
2022-08-26T06:47:19.437Z,22.68
2022-08-26T06:48:19.407Z,22.73
2022-08-26T06:49:25.799Z,22.74
2022-08-26T06:50:20.422Z,22.74
2022-08-26T06:51:19.401Z,22.74
2022-08-26T06:52:24.231Z,22.77
2022-08-26T06:53:20.460Z,22.81
2022-08-26T06:54:19.431Z,22.88
2022-08-26T06:55:19.349Z,22.91
2022-08-26T06:56:19.348Z,22.93
2022-08-26T06:57:19.317Z,22.93
2022-08-26T06:58:19.308Z,22.98
2022-08-26T06:59:19.297Z,23.04
2022-08-26T07:00:19.263Z,23.11
2022-08-26T07:01:19.727Z,23.13
2022-08-26T07:02:19.294Z,23.11
2022-08-26T07:03:19.226Z,23.17
2022-08-26T07:04:22.098Z,23.17
2022-08-26T07:05:19.208Z,23.17
2022-08-26T07:06:19.179Z,23.23
2022-08-26T07:07:21.645Z,23.26
2022-08-26T07:08:19.166Z,23.28
2022-08-26T07:09:19.166Z,23.29
2022-08-26T07:10:19.178Z,23.33
2022-08-26T07:11:19.172Z,23.34
2022-08-26T07:12:19.262Z,23.40
2022-08-26T07:13:30.524Z,23.44
2022-08-26T07:14:21.183Z,23.48
2022-08-26T07:15:19.148Z,23.52
2022-08-26T07:16:19.158Z,23.54
2022-08-26T07:17:19.170Z,23.58
2022-08-26T07:18:19.201Z,23.56
2022-08-26T07:19:30.482Z,23.56
2022-08-26T07:20:20.129Z,23.56
2022-08-26T07:21:19.120Z,23.56
2022-08-26T07:22:19.141Z,23.58
2022-08-26T07:23:19.038Z,23.58
2022-08-26T07:24:19.010Z,23.58
2022-08-26T07:25:19.302Z,23.58
2022-08-26T07:26:19.184Z,23.59
2022-08-26T07:27:19.150Z,23.63
2022-08-26T07:28:19.133Z,23.64
2022-08-26T07:29:19.242Z,23.67
2022-08-26T07:30:18.958Z,23.70
2022-08-26T07:31:19.015Z,23.70
2022-08-26T07:32:18.952Z,23.73
2022-08-26T07:33:18.912Z,23.71
2022-08-26T07:34:18.935Z,23.77
2022-08-26T07:35:18.903Z,23.77
2022-08-26T07:36:18.874Z,23.81
2022-08-26T07:37:18.854Z,23.81
2022-08-26T07:38:18.860Z,23.81
2022-08-26T07:39:18.945Z,23.81
2022-08-26T07:40:18.953Z,23.86
2022-08-26T07:41:18.880Z,23.91
2022-08-26T07:42:18.812Z,23.94
2022-08-26T07:43:18.959Z,23.95
2022-08-26T07:44:18.976Z,23.95
2022-08-26T07:45:18.773Z,23.94
2022-08-26T07:46:26.983Z,23.96
2022-08-26T07:47:25.587Z,23.95
2022-08-26T07:48:19.762Z,23.96
2022-08-26T07:49:18.848Z,24.01
2022-08-26T07:50:18.739Z,24.03
2022-08-26T07:51:18.773Z,24.07
2022-08-26T07:52:20.697Z,24.13
2022-08-26T07:53:19.701Z,24.11
2022-08-26T07:54:18.832Z,24.16
2022-08-26T07:55:18.642Z,24.16
2022-08-26T07:56:18.637Z,24.13
2022-08-26T07:57:19.084Z,24.13
2022-08-26T07:58:18.662Z,24.11
2022-08-26T07:59:18.658Z,24.11
2022-08-26T08:00:18.641Z,24.09
2022-08-26T08:01:18.655Z,24.09
2022-08-26T08:02:18.634Z,24.13
2022-08-26T08:03:18.588Z,24.14
2022-08-26T08:04:21.929Z,24.19
2022-08-26T08:05:19.580Z,24.24
2022-08-26T08:06:18.601Z,24.29
2022-08-26T08:07:18.553Z,24.34
2022-08-26T08:08:26.942Z,24.36
2022-08-26T08:09:19.541Z,24.25
2022-08-26T08:10:18.686Z,24.19
2022-08-26T08:11:18.473Z,24.13
2022-08-26T08:12:18.513Z,24.13
2022-08-26T08:13:18.467Z,24.11
2022-08-26T08:14:18.474Z,24.14
2022-08-26T08:15:18.503Z,24.14
2022-08-26T08:16:18.548Z,24.13
2022-08-26T08:17:18.483Z,24.14
2022-08-26T08:18:20.373Z,24.19
2022-08-26T08:19:18.451Z,24.21
2022-08-26T08:20:18.391Z,24.21
2022-08-26T08:21:21.359Z,24.10
2022-08-26T08:22:19.801Z,24.04
2022-08-26T08:23:18.353Z,24.09
2022-08-26T08:24:18.335Z,24.14
2022-08-26T08:25:18.321Z,24.14
2022-08-26T08:26:18.319Z,24.21
2022-08-26T08:27:23.278Z,24.25
2022-08-26T08:28:19.315Z,24.29
2022-08-26T08:29:18.338Z,24.28
2022-08-26T08:30:20.824Z,24.31
2022-08-26T08:31:21.562Z,24.37
2022-08-26T08:32:19.295Z,24.34
2022-08-26T08:33:18.263Z,24.32
2022-08-26T08:34:18.385Z,24.34
2022-08-26T08:35:18.267Z,24.32
2022-08-26T08:36:18.462Z,24.21
2022-08-26T08:37:18.237Z,24.19
2022-08-26T08:38:18.209Z,24.24
2022-08-26T08:39:18.281Z,24.36
2022-08-26T08:40:18.516Z,24.47
2022-08-26T08:41:18.187Z,24.55
2022-08-26T08:42:18.196Z,24.62
2022-08-26T08:43:18.170Z,24.61
2022-08-26T08:44:18.177Z,24.50
2022-08-26T08:45:18.387Z,24.53
2022-08-26T08:46:18.203Z,24.51
2022-08-26T08:47:18.137Z,24.51
2022-08-26T08:48:18.067Z,24.53
2022-08-26T08:49:18.221Z,24.55
2022-08-26T08:50:18.092Z,24.51
2022-08-26T08:51:18.017Z,24.53
2022-08-26T08:52:18.196Z,24.50
2022-08-26T08:53:18.019Z,24.47
2022-08-26T08:54:17.987Z,24.48
2022-08-26T08:55:18.767Z,24.53
2022-08-26T08:56:18.014Z,24.55
2022-08-26T08:57:17.979Z,24.58
2022-08-26T08:58:19.162Z,24.62
2022-08-26T08:59:18.122Z,24.62
2022-08-26T09:00:18.066Z,24.46
2022-08-26T09:01:18.072Z,24.32
2022-08-26T09:02:18.015Z,24.37
2022-08-26T09:03:17.949Z,24.28
2022-08-26T09:04:17.891Z,24.24
2022-08-26T09:05:17.938Z,24.26
2022-08-26T09:06:17.932Z,24.28
2022-08-26T09:07:17.861Z,24.32
2022-08-26T09:08:19.740Z,24.18
2022-08-26T09:09:17.849Z,24.18
2022-08-26T09:10:17.897Z,24.24
2022-08-26T09:11:17.858Z,24.29
2022-08-26T09:12:17.833Z,24.29
2022-08-26T09:13:26.300Z,24.29
2022-08-26T09:14:18.796Z,24.37
2022-08-26T09:15:17.840Z,24.44
2022-08-26T09:16:18.959Z,24.50
2022-08-26T09:17:17.829Z,24.53
2022-08-26T09:18:17.772Z,24.56
2022-08-26T09:19:18.884Z,24.61
2022-08-26T09:20:17.751Z,24.62
2022-08-26T09:21:17.881Z,24.66
2022-08-26T09:22:17.742Z,24.65
2022-08-26T09:23:18.146Z,24.65
2022-08-26T09:24:18.187Z,24.61
2022-08-26T09:25:18.634Z,24.63
2022-08-26T09:26:17.662Z,24.65
2022-08-26T09:27:17.712Z,24.65
2022-08-26T09:28:17.670Z,24.58
2022-08-26T09:29:17.823Z,24.50
2022-08-26T09:30:17.704Z,24.38
2022-08-26T09:31:17.696Z,24.37
2022-08-26T09:32:17.608Z,24.40
2022-08-26T09:33:17.571Z,24.36
2022-08-26T09:34:17.843Z,24.21
2022-08-26T09:35:17.548Z,24.14
2022-08-26T09:36:17.551Z,24.22
2022-08-26T09:37:17.530Z,24.14
2022-08-26T09:38:17.505Z,24.18
2022-08-26T09:39:17.491Z,24.24
2022-08-26T09:40:17.680Z,24.34
2022-08-26T09:41:17.481Z,24.37
2022-08-26T09:42:17.473Z,24.41
2022-08-26T09:43:22.067Z,24.47
2022-08-26T09:44:18.464Z,24.53
2022-08-26T09:45:17.572Z,24.59
2022-08-26T09:46:17.629Z,24.66
2022-08-26T09:47:17.443Z,24.74
2022-08-26T09:48:17.670Z,24.74
2022-08-26T09:49:17.387Z,24.74
2022-08-26T09:50:17.375Z,24.77
2022-08-26T09:51:17.362Z,24.84
2022-08-26T09:52:17.362Z,24.84
2022-08-26T09:53:17.342Z,24.85
2022-08-26T09:54:17.344Z,24.92
2022-08-26T09:55:17.350Z,24.97
2022-08-26T09:56:17.312Z,25.06
2022-08-26T09:57:17.353Z,25.16
2022-08-26T09:58:17.345Z,25.25
2022-08-26T09:59:18.892Z,25.25
2022-08-26T10:00:17.293Z,25.29
2022-08-26T10:01:17.344Z,25.26
2022-08-26T10:02:17.300Z,25.24
2022-08-26T10:03:17.496Z,25.18
2022-08-26T10:04:17.329Z,25.21
2022-08-26T10:05:17.285Z,25.16
2022-08-26T10:06:17.243Z,25.14
2022-08-26T10:07:17.209Z,25.07
2022-08-26T10:08:17.234Z,25.03
2022-08-26T10:09:17.174Z,24.94
2022-08-26T10:10:17.206Z,24.97
2022-08-26T10:11:17.218Z,25.16
2022-08-26T10:12:17.154Z,25.16
2022-08-26T10:13:17.195Z,25.25
2022-08-26T10:14:17.157Z,25.30
2022-08-26T10:15:17.136Z,25.33
2022-08-26T10:16:17.188Z,25.39
2022-08-26T10:17:17.125Z,25.43
2022-08-26T10:18:17.094Z,25.55
2022-08-26T10:19:17.066Z,25.55
2022-08-26T10:20:23.590Z,25.55
2022-08-26T10:21:18.173Z,25.62
2022-08-26T10:22:17.044Z,25.61
2022-08-26T10:23:17.028Z,25.58
2022-08-26T10:24:17.026Z,25.68
2022-08-26T10:25:17.020Z,25.71
2022-08-26T10:26:17.067Z,25.78
2022-08-26T10:27:17.018Z,25.83
2022-08-26T10:28:16.965Z,25.88
2022-08-26T10:29:16.984Z,25.73
2022-08-26T10:30:16.965Z,25.62
2022-08-26T10:31:17.007Z,25.62
2022-08-26T10:32:17.007Z,25.68
2022-08-26T10:33:17.908Z,25.76
2022-08-26T10:34:16.918Z,25.78
2022-08-26T10:35:16.913Z,25.86
2022-08-26T10:36:16.897Z,25.91
2022-08-26T10:37:16.987Z,25.98
2022-08-26T10:38:16.941Z,25.95
2022-08-26T10:39:16.880Z,25.96
2022-08-26T10:40:16.974Z,26.01
2022-08-26T10:41:18.246Z,26.07
2022-08-26T10:42:16.841Z,26.10
2022-08-26T10:43:16.849Z,26.13
2022-08-26T10:44:16.878Z,26.15
2022-08-26T10:45:16.792Z,26.13
2022-08-26T10:46:16.862Z,26.11
2022-08-26T10:47:16.849Z,26.16
2022-08-26T10:48:16.779Z,26.18
2022-08-26T10:49:16.758Z,26.04
2022-08-26T10:50:18.138Z,26.11
2022-08-26T10:51:16.737Z,26.19
2022-08-26T10:52:16.836Z,26.22
2022-08-26T10:53:16.738Z,26.22
2022-08-26T10:54:16.709Z,26.29
2022-08-26T10:55:16.763Z,26.29
2022-08-26T10:56:19.076Z,26.29
2022-08-26T10:57:16.697Z,26.49
2022-08-26T10:58:26.282Z,26.66
2022-08-26T10:59:17.676Z,26.82
2022-08-26T11:00:16.630Z,27.05
2022-08-26T11:01:16.867Z,27.28
2022-08-26T11:02:16.613Z,27.47
2022-08-26T11:03:22.644Z,27.57
2022-08-26T11:04:17.671Z,27.61
2022-08-26T11:05:16.570Z,27.75
2022-08-26T11:06:16.578Z,27.79
2022-08-26T11:07:16.540Z,27.95
2022-08-26T11:08:16.531Z,28.10
2022-08-26T11:09:16.512Z,28.30
2022-08-26T11:10:16.502Z,28.04
2022-08-26T11:11:16.492Z,27.88
2022-08-26T11:12:16.526Z,27.68
2022-08-26T11:13:16.572Z,27.58
2022-08-26T11:14:16.522Z,27.58
2022-08-26T11:15:17.482Z,27.43
2022-08-26T11:16:16.543Z,27.41
2022-08-26T11:17:16.449Z,27.50
2022-08-26T11:18:16.432Z,27.50
2022-08-26T11:19:16.432Z,27.58
2022-08-26T11:20:16.514Z,27.63
2022-08-26T11:21:16.394Z,27.73
2022-08-26T11:22:16.375Z,27.64
2022-08-26T11:23:16.402Z,27.63
2022-08-26T11:24:16.383Z,27.76
2022-08-26T11:25:16.390Z,27.97
2022-08-26T11:26:35.652Z,27.79
2022-08-26T11:27:17.392Z,27.52
2022-08-26T11:28:16.394Z,27.52
2022-08-26T11:29:16.315Z,27.57
2022-08-26T11:30:18.578Z,27.64
2022-08-26T11:31:16.333Z,27.64
2022-08-26T11:32:16.284Z,27.67
2022-08-26T11:33:16.304Z,27.72
2022-08-26T11:34:16.254Z,27.75
2022-08-26T11:35:16.246Z,27.78
2022-08-26T11:36:16.226Z,27.85
2022-08-26T11:37:16.237Z,27.79
2022-08-26T11:38:16.236Z,27.85
2022-08-26T11:39:16.245Z,27.90
2022-08-26T11:40:16.280Z,27.91
2022-08-26T11:41:16.196Z,27.85
2022-08-26T11:42:16.184Z,27.85
2022-08-26T11:43:16.196Z,27.78
2022-08-26T11:44:16.155Z,27.88
2022-08-26T11:45:16.124Z,28.00
2022-08-26T11:46:16.191Z,27.95
2022-08-26T11:47:16.110Z,27.88
2022-08-26T11:48:16.115Z,27.75
2022-08-26T11:49:16.087Z,27.52
2022-08-26T11:50:16.072Z,27.53
2022-08-26T11:51:16.096Z,27.67
2022-08-26T11:52:16.146Z,27.83
2022-08-26T11:53:16.128Z,27.78
2022-08-26T11:54:16.086Z,27.85
2022-08-26T11:55:16.115Z,27.94
2022-08-26T11:56:16.036Z,28.00
2022-08-26T11:57:15.988Z,27.93
2022-08-26T11:58:16.007Z,27.79
2022-08-26T11:59:15.978Z,27.53
2022-08-26T12:00:20.513Z,27.44
2022-08-26T12:01:16.986Z,27.58
2022-08-26T12:02:15.918Z,27.66
2022-08-26T12:03:15.973Z,27.57
2022-08-26T12:04:15.998Z,27.55
2022-08-26T12:05:15.898Z,27.50
2022-08-26T12:06:15.929Z,27.48
2022-08-26T12:07:15.885Z,27.44
2022-08-26T12:08:15.881Z,27.44
2022-08-26T12:09:15.877Z,27.41
2022-08-26T12:10:15.860Z,27.48
2022-08-26T12:11:15.829Z,27.64
2022-08-26T12:12:15.840Z,27.76
2022-08-26T12:13:15.947Z,27.81
2022-08-26T12:14:15.862Z,27.93
2022-08-26T12:15:15.844Z,27.95
2022-08-26T12:16:15.911Z,27.86
2022-08-26T12:17:15.821Z,27.90
2022-08-26T12:18:15.820Z,28.04
2022-08-26T12:19:15.810Z,28.06
2022-08-26T12:20:15.771Z,28.15
2022-08-26T12:21:15.758Z,28.22
2022-08-26T12:22:15.771Z,28.40
2022-08-26T12:23:15.761Z,28.49
2022-08-26T12:24:15.730Z,28.60
2022-08-26T12:25:15.722Z,28.60
2022-08-26T12:26:15.776Z,28.57
2022-08-26T12:27:15.743Z,28.46
2022-08-26T12:28:15.711Z,28.43
2022-08-26T12:29:20.035Z,28.40
2022-08-26T12:30:18.014Z,28.43
2022-08-26T12:31:15.662Z,28.45
2022-08-26T12:32:15.629Z,28.40
2022-08-26T12:33:22.986Z,28.38
2022-08-26T12:34:18.247Z,28.49
2022-08-26T12:35:15.603Z,28.65
2022-08-26T12:36:15.591Z,28.87
2022-08-26T12:37:15.561Z,29.03
2022-08-26T12:38:15.566Z,28.92
2022-08-26T12:39:15.565Z,28.70
2022-08-26T12:40:15.633Z,28.47
2022-08-26T12:41:15.523Z,28.52
2022-08-26T12:42:15.543Z,28.65
2022-08-26T12:43:15.523Z,28.67
2022-08-26T12:44:15.514Z,28.74
2022-08-26T12:45:15.573Z,28.90
2022-08-26T12:46:15.488Z,29.18
2022-08-26T12:47:15.464Z,29.43
2022-08-26T12:48:16.455Z,29.47
2022-08-26T12:49:15.434Z,29.43
2022-08-26T12:50:15.424Z,30.01
2022-08-26T12:51:15.435Z,31.13
2022-08-26T12:52:15.409Z,31.04